Impacts METAR Board
IDs:

KSLC - Salt Lake City Intl, UT, US

Updated at: 0100 UTC 31 May 2020
Potential Impact None Slight Moderate High
Time 30/13Z 30/14Z 30/15Z 30/16Z 30/17Z 30/18Z 30/19Z 30/20Z 30/21Z 30/22Z 30/23Z 31/00Z 31/01Z
Temp78 80 84 87 89 92 96 96 94 95 95 78 85
Dewpt45 42 43 44 43 44 38 35 36 37 37 49 46
Altim30.02 30.00 30.01 29.99 29.98 29.95 29.92 29.89 29.87 29.85 29.82 29.87 29.83
VIS10 10 10 10 10 10 10 10 10 10 10 8 10
CIG150 70 150 220 230 230 230 230 110 130 140 95 150
CoverBKNBKNBKNBKNBKNBKNBKNBKNBKNBKNBKNBKNOVC
FltCatVFRVFRVFRVFRVFRVFRVFRVFRVFRVFRVFRVFRVFR
WX----------------TS-----RA--
WDir1501001601201601201801701800150200130
WSpd15 13 10 9 10 10 14 15 17 3 15 34 11
WGst-- -- -- -- -- -- 21 23 22 -- 22 43 --
Raw hourly METARs
KSLC 301254Z 15015KT 10SM FEW120 BKN150 26/07 A3002 RMK AO2 SLP098 VIRGA VC S-W AND DSNT E-SE T02560072
KSLC 301354Z 10013KT 10SM BKN070 BKN100 BKN120 BKN160 27/06 A3000 RMK AO2 PK WND 16026/1321 WSHFT 1330 SLP092 VIRGA ACSL DSNT N T02670056
KSLC 301454Z 16010KT 10SM BKN150 BKN220 29/06 A3001 RMK AO2 SLP095 VIRGA DSNT NW-NE T02890061 51007
KSLC 301554Z 12009KT 10SM FEW110 SCT150 BKN220 31/07 A2999 RMK AO2 SLP088 TCU DSNT NW-NE AND E T03060067
KSLC 301654Z 16010KT 10SM FEW075 FEW110 SCT150 BKN230 32/06 A2998 RMK AO2 SLP082 ACSL DSNT NE T03170061
KSLC 301754Z 12010KT 10SM FEW075 FEW110 SCT150 BKN230 33/07 A2995 RMK AO2 SLP073 ACSL DSNT N-E T03330067 10339 20250 58018
KSLC 301854Z 18014G21KT 10SM FEW075 SCT110 SCT150 BKN230 36/03 A2992 RMK AO2 SLP061 ACSL DSNT NE-E T03560033
KSLC 301954Z 17015G23KT 10SM SCT110 BKN230 36/02 A2989 RMK AO2 SLP050 TCU DSNT NE-SE T03560017
KSLC 302054Z COR 18017G22KT 10SM TS FEW010 BKN110CB BKN230 34/02 A2987 RMK AO2 LTG DSNT NW SLP045 TSB40 OCNL LTGICCG TS NW MOV N VCSH CB W TCU DSNT NE AND E AND SW FU FEW010 FU N T03440022 56024
KSLC 302154Z VRB03KT 10SM FEW075TCU SCT085 BKN130 BKN220 35/03 A2985 RMK AO2 PK WND 16044/2102 LTG DSNT NE-SE TSE14 SLP038 CB DSNT N-SE AND S-SW TCU OHD VCSH T03500028
KSLC 302254Z 15015G22KT 10SM SCT075 BKN140 BKN240 35/03 A2982 RMK AO2 PK WND 16028/2203 LTG DSNT S AND SW SLP029 CB DSNT N AND SE-W SH DSNT S-W T03500028
KSLC 302354Z 20034G43KT 8SM -RA FEW070CB BKN095 BKN210 26/09 A2987 RMK AO2 PK WND 20050/2324 WSHFT 2328 LTG DSNT E AND SE RAB26 PRESRR SLP056 CB S MOV NE AND DSNT SE-W P0000 60000 T02560094 10367 20256 53001
KSLC 310054Z 13011KT 10SM FEW100 BKN150 OVC210 29/08 A2983 RMK AO2 PK WND 19039/2355 LTG DSNT NE AND SE RAE11 SLP036 CB DSNT NE-SE AND S-NW SH DSNT ALQDS BINOVC P0000 T02940078



Page loaded:  01:36 UTC  |   06:36 PM Pacific  |   07:36 PM Mountain  |   08:36 PM Central  |   09:36 PM Eastern

 

ADVISORIES

FORECASTS

FORECASTS

OBSERVATIONS

USER TOOLS

ABOUT US